Portada
METAR-TAF:

METAR-TAF

Aeropuertos :

Aeropuerto Internacional General Juan N. Álvarez

Acapulco, México

latitud: 16-46N, longitud: 099-45W, altitud: 5 m

Observación

El informe se hizo hace 32 minutos, a las 17:43 UTC
Viento 5 kt del oeste-suroeste
Temperatura 30°C
Humedad 66%
Presión 1013 hPa
Visibilidad: 11.3 km
Cielo despejado

METAR: MMAA 251743Z 25005KT 7SM SKC 30/23 A2991 RMK SLP126 57007 961 HZYS

Hora: 12:15 (18:15 UTC)

Pronóstico

El informe se hizo hace 1 hora y 41 minutos, a las 16:34 UTC
Pronóstico válido del 25 a las 18 UTC al 26 a las 24 UTC
Viento 10 kt del oeste-suroeste
Visibilidad: 10 km
Cielo despejado
A partir de las 26 a las 0400 UTC
Viento 5 kt del norte-noreste
Visibilidad: 10 km
Cielo despejado
A partir de las 26 a las 1700 UTC
Viento 10 kt del oeste-suroeste
Visibilidad: 10 km
Cielo despejado

TAF: MMAA 251634Z 2518/2624 24010KT P6SM SKC TX30/2518Z TN23/2612Z FM260400 02005KT P6SM SKC FM261700 24010KT P6SM SKC

Observaciones y pronósticos meteorológicos de más de 4000 aeropuertos (mensajes METAR y TAF).

Los puntos amarillos y rojos representan las estaciones disponibles.

Ponga el ratón en el punto deseado para ver el nombre de la estación.

Haga clic para ver las observaciones y los pronósticos meteorológicos.

Para cambiar el mapa : haga clic en los botones verdes con una cruz de color negro para hacer un zoom, en el botón verde con un guión para alejar o en las flechas verdes para mapas adyacentes.


METAR-TAF: